createdAt,value
2022-08-09T00:00:04.096Z,1.13
2022-08-09T00:01:16.352Z,1.30
2022-08-09T00:02:17.992Z,1.63
2022-08-09T00:04:05.874Z,1.15
2022-08-09T00:04:42.286Z,1.17
2022-08-09T00:06:19.116Z,1.40
2022-08-09T00:07:24.189Z,1.30
2022-08-09T00:08:32.442Z,1.40
2022-08-09T00:09:34.309Z,1.52
2022-08-09T00:10:39.210Z,1.55
2022-08-09T00:12:03.184Z,1.27
2022-08-09T00:13:01.951Z,1.42
2022-08-09T00:14:06.542Z,1.30
2022-08-09T00:15:13.869Z,1.60
2022-08-09T00:16:16.578Z,1.48
2022-08-09T00:18:06.044Z,1.33
2022-08-09T00:18:49.340Z,1.52
2022-08-09T00:19:50.684Z,1.35
2022-08-09T00:20:53.273Z,1.30
2022-08-09T00:21:57.157Z,1.52
2022-08-09T00:22:58.553Z,1.17
2022-08-09T00:24:20.077Z,1.55
2022-08-09T00:25:23.511Z,1.60
2022-08-09T00:26:33.423Z,1.23
2022-08-09T00:27:36.297Z,1.50
2022-08-09T00:28:52.534Z,1.67
2022-08-09T00:30:24.422Z,1.77
2022-08-09T00:31:57.770Z,1.52
2022-08-09T00:32:37.628Z,1.38
2022-08-09T00:33:48.965Z,1.20
2022-08-09T00:34:52.952Z,1.35
2022-08-09T00:35:55.055Z,1.50
2022-08-09T00:36:57.365Z,1.55
2022-08-09T00:38:00.205Z,1.27
2022-08-09T00:39:04.676Z,1.30
2022-08-09T00:40:12.188Z,1.42
2022-08-09T00:44:13.799Z,1.20
2022-08-09T00:44:13.998Z,1.20
2022-08-09T00:44:15.599Z,1.13
2022-08-09T00:45:24.754Z,1.38
2022-08-09T00:46:56.040Z,1.73
2022-08-09T00:47:48.290Z,1.20
2022-08-09T00:48:49.717Z,1.15
2022-08-09T00:49:56.717Z,1.70
2022-08-09T00:51:00.665Z,1.33
2022-08-09T00:52:17.665Z,1.40
2022-08-09T00:53:24.256Z,1.30
2022-08-09T00:54:31.357Z,1.08
2022-08-09T00:56:04.392Z,1.60
2022-08-09T00:56:58.174Z,1.27
2022-08-09T00:58:00.279Z,1.30
2022-08-09T00:59:01.953Z,1.55
2022-08-09T01:00:22.109Z,1.50
2022-08-09T01:01:32.405Z,1.20
2022-08-09T01:03:09.198Z,1.48
2022-08-09T01:04:30.927Z,1.25
2022-08-09T01:05:51.049Z,1.40
2022-08-09T01:07:16.444Z,1.45
2022-08-09T01:08:40.440Z,1.52
2022-08-09T01:09:56.144Z,1.27
2022-08-09T01:11:01.988Z,1.58
2022-08-09T01:12:08.449Z,1.55
2022-08-09T01:13:13.024Z,1.50
2022-08-09T01:14:35.167Z,1.40
2022-08-09T01:15:40.968Z,1.40
2022-08-09T01:16:55.449Z,1.70
2022-08-09T01:18:04.922Z,1.50
2022-08-09T01:19:16.708Z,1.50
2022-08-09T01:20:42.791Z,1.60
2022-08-09T01:21:50.929Z,1.60
2022-08-09T01:23:12.381Z,1.50
2022-08-09T01:24:52.128Z,1.40
2022-08-09T01:26:12.438Z,1.50
2022-08-09T01:27:17.816Z,1.40
2022-08-09T01:28:21.290Z,1.75
2022-08-09T01:29:41.192Z,1.60
2022-08-09T01:30:53.355Z,1.40
2022-08-09T01:32:44.118Z,1.30
2022-08-09T01:33:22.261Z,1.20
2022-08-09T01:34:24.866Z,1.40
2022-08-09T01:35:46.793Z,1.35
2022-08-09T01:36:54.958Z,1.38
2022-08-09T01:38:08.376Z,1.50
2022-08-09T01:39:13.188Z,1.50
2022-08-09T01:40:22.987Z,2.10
2022-08-09T01:41:30.581Z,1.58
2022-08-09T01:42:34.983Z,1.50
2022-08-09T01:43:50.402Z,1.50
2022-08-09T01:44:54.857Z,1.50
2022-08-09T01:45:58.107Z,1.70
2022-08-09T01:47:00.817Z,1.42
2022-08-09T01:48:06.243Z,1.40
2022-08-09T01:49:12.794Z,1.35
2022-08-09T01:50:16.586Z,1.48
2022-08-09T01:51:22.761Z,1.35
2022-08-09T01:52:25.069Z,1.40
2022-08-09T01:53:29.314Z,1.55
2022-08-09T01:54:47.333Z,1.73
2022-08-09T01:55:50.199Z,1.70
2022-08-09T01:56:52.112Z,1.55
2022-08-09T01:57:53.751Z,1.42
2022-08-09T01:58:56.461Z,1.38
2022-08-09T02:00:08.840Z,1.25
2022-08-09T02:01:57.730Z,1.40
2022-08-09T02:02:47.609Z,1.40
2022-08-09T02:03:49.542Z,1.58
2022-08-09T02:04:51.135Z,1.50
2022-08-09T02:06:04.006Z,1.58
2022-08-09T02:07:15.457Z,1.60
2022-08-09T02:08:35.462Z,1.23
2022-08-09T02:09:59.753Z,1.73
2022-08-09T02:11:03.167Z,1.50
2022-08-09T02:12:32.427Z,1.55
2022-08-09T02:13:37.578Z,1.40
2022-08-09T02:14:43.483Z,1.70
2022-08-09T02:15:49.640Z,1.98
2022-08-09T02:17:15.270Z,2.00
2022-08-09T02:18:15.381Z,2.00
2022-08-09T02:19:17.954Z,1.60
2022-08-09T02:20:25.131Z,1.60
2022-08-09T02:21:29.748Z,1.70
2022-08-09T02:22:38.129Z,1.70
2022-08-09T02:23:43.612Z,1.73
2022-08-09T02:24:51.716Z,1.70
2022-08-09T02:25:56.970Z,1.88
2022-08-09T02:27:01.792Z,1.85
2022-08-09T02:28:09.719Z,1.85
2022-08-09T02:29:22.487Z,1.50
2022-08-09T02:30:25.361Z,1.60
2022-08-09T02:31:34.009Z,1.50
2022-08-09T02:32:41.262Z,1.55
2022-08-09T02:34:07.354Z,1.65
2022-08-09T02:35:17.428Z,1.45
2022-08-09T02:36:22.138Z,1.40
2022-08-09T02:37:31.617Z,1.52
2022-08-09T02:38:47.613Z,1.60
2022-08-09T02:39:55.222Z,1.65
2022-08-09T02:41:08.720Z,2.00
2022-08-09T02:42:13.120Z,1.58
2022-08-09T02:43:14.779Z,1.60
2022-08-09T02:44:29.560Z,1.65
2022-08-09T02:45:36.886Z,1.60
2022-08-09T02:46:39.164Z,1.80
2022-08-09T02:47:46.295Z,1.88
2022-08-09T02:49:01.039Z,1.60
2022-08-09T02:50:13.128Z,1.70
2022-08-09T02:51:18.104Z,2.10
2022-08-09T02:52:22.446Z,1.60
2022-08-09T02:53:26.105Z,1.90
2022-08-09T02:54:28.340Z,1.70
2022-08-09T02:55:46.561Z,1.67
2022-08-09T02:56:57.237Z,1.63
2022-08-09T02:58:32.241Z,1.80
2022-08-09T02:59:26.596Z,1.73
2022-08-09T03:00:47.751Z,1.83
2022-08-09T03:02:06.168Z,1.77
2022-08-09T03:03:08.567Z,1.70
2022-08-09T03:04:19.358Z,1.55
2022-08-09T03:05:21.695Z,1.60
2022-08-09T03:06:25.149Z,1.85
2022-08-09T03:07:29.134Z,1.77
2022-08-09T03:08:30.817Z,1.52
2022-08-09T03:09:33.747Z,1.55
2022-08-09T03:10:36.378Z,1.90
2022-08-09T03:12:06.011Z,1.73
2022-08-09T03:13:01.362Z,1.83
2022-08-09T03:14:03.020Z,1.80
2022-08-09T03:15:05.826Z,2.20
2022-08-09T03:16:07.612Z,1.70
2022-08-09T03:17:16.536Z,2.15
2022-08-09T03:18:30.495Z,1.83
2022-08-09T03:19:57.651Z,1.80
2022-08-09T03:20:55.524Z,1.90
2022-08-09T03:21:57.877Z,1.70
2022-08-09T03:23:10.527Z,1.90
2022-08-09T03:24:31.175Z,2.13
2022-08-09T03:25:58.621Z,1.80
2022-08-09T03:27:03.627Z,1.70
2022-08-09T03:28:11.248Z,2.15
2022-08-09T03:29:13.422Z,2.00
2022-08-09T03:30:33.530Z,1.90
2022-08-09T03:31:42.703Z,1.77
2022-08-09T03:32:59.171Z,1.75
2022-08-09T03:34:02.945Z,1.73
2022-08-09T03:35:14.961Z,1.88
2022-08-09T03:36:27.748Z,1.65
2022-08-09T03:37:56.567Z,1.60
2022-08-09T03:38:51.172Z,1.65
2022-08-09T03:39:55.664Z,1.50
2022-08-09T03:40:58.325Z,1.60
2022-08-09T03:42:06.191Z,1.80
2022-08-09T03:43:08.451Z,1.80
2022-08-09T03:44:12.861Z,1.30
2022-08-09T03:45:15.439Z,1.70
2022-08-09T03:46:20.566Z,1.55
2022-08-09T03:47:28.733Z,1.70
2022-08-09T03:48:43.017Z,1.90
2022-08-09T03:49:58.159Z,1.75
2022-08-09T03:51:00.493Z,1.98
2022-08-09T03:52:03.756Z,1.52
2022-08-09T03:53:06.217Z,1.80
2022-08-09T03:54:13.935Z,1.70
2022-08-09T03:55:15.433Z,1.65
2022-08-09T03:56:19.101Z,1.83
2022-08-09T03:57:21.266Z,1.83
2022-08-09T03:58:22.965Z,1.73
2022-08-09T03:59:27.272Z,1.75
2022-08-09T04:00:29.380Z,1.70
2022-08-09T04:01:31.834Z,1.70
2022-08-09T04:02:34.450Z,2.22
2022-08-09T04:03:46.238Z,1.65
2022-08-09T04:05:00.826Z,1.88
2022-08-09T04:06:04.659Z,1.80
2022-08-09T04:07:06.437Z,1.85
2022-08-09T04:08:07.995Z,2.00
2022-08-09T04:09:15.083Z,1.80
2022-08-09T04:10:31.506Z,1.50
2022-08-09T04:11:45.673Z,1.70
2022-08-09T04:12:49.917Z,1.50
2022-08-09T04:14:36.992Z,1.60
2022-08-09T04:15:29.479Z,1.60
2022-08-09T04:16:36.375Z,1.80
2022-08-09T04:17:39.311Z,1.77
2022-08-09T04:18:43.537Z,1.77
2022-08-09T04:19:51.459Z,1.73
2022-08-09T04:20:57.443Z,1.67
2022-08-09T04:21:58.837Z,1.55
2022-08-09T04:23:00.216Z,1.85
2022-08-09T04:24:03.506Z,1.80
2022-08-09T04:25:05.634Z,1.83
2022-08-09T04:26:07.022Z,2.00
2022-08-09T04:27:08.383Z,1.92
2022-08-09T04:28:10.306Z,1.75
2022-08-09T04:29:15.683Z,2.00
2022-08-09T04:30:20.990Z,1.77
2022-08-09T04:31:26.414Z,1.90
2022-08-09T04:32:39.711Z,2.10
2022-08-09T04:33:56.632Z,1.80
2022-08-09T04:34:58.523Z,2.08
2022-08-09T04:36:02.793Z,2.10
2022-08-09T04:37:04.488Z,2.00
2022-08-09T04:38:06.234Z,2.08
2022-08-09T04:39:10.439Z,2.00
2022-08-09T04:40:28.824Z,1.92
2022-08-09T04:41:43.388Z,1.77
2022-08-09T04:42:45.361Z,1.80
2022-08-09T04:44:05.078Z,2.40
2022-08-09T04:45:09.043Z,2.13
2022-08-09T04:46:56.735Z,2.85
2022-08-09T04:47:44.975Z,2.90
2022-08-09T04:48:57.426Z,3.28
2022-08-09T04:49:59.734Z,3.20
2022-08-09T04:51:01.737Z,3.10
2022-08-09T04:52:06.004Z,2.65
2022-08-09T04:53:13.320Z,2.47
2022-08-09T04:54:15.006Z,2.17
2022-08-09T04:55:17.333Z,2.55
2022-08-09T04:56:20.923Z,2.20
2022-08-09T04:57:58.334Z,2.40
2022-08-09T04:58:50.879Z,2.42
2022-08-09T04:59:53.399Z,2.40
2022-08-09T05:00:55.425Z,1.98
2022-08-09T05:01:56.798Z,2.10
2022-08-09T05:02:59.169Z,2.10
2022-08-09T05:04:22.207Z,1.92
2022-08-09T05:05:52.508Z,1.75
2022-08-09T05:06:53.637Z,2.20
2022-08-09T05:07:58.106Z,1.85
2022-08-09T05:09:00.583Z,2.00
2022-08-09T05:10:02.887Z,1.80
2022-08-09T05:11:07.754Z,1.80
2022-08-09T05:12:09.447Z,1.73
2022-08-09T05:13:14.217Z,2.10
2022-08-09T05:14:15.829Z,2.13
2022-08-09T05:15:38.560Z,2.00
2022-08-09T05:16:58.197Z,2.10
2022-08-09T05:18:39.559Z,2.40
2022-08-09T05:19:25.778Z,2.55
2022-08-09T05:20:29.969Z,1.70
2022-08-09T05:21:36.512Z,2.42
2022-08-09T05:23:55.576Z,2.15
2022-08-09T05:24:11.782Z,1.75
2022-08-09T05:25:15.143Z,1.80
2022-08-09T05:26:26.548Z,1.90
2022-08-09T05:27:45.394Z,2.20
2022-08-09T05:28:49.432Z,2.45
2022-08-09T05:29:53.527Z,1.80
2022-08-09T05:30:55.646Z,2.03
2022-08-09T05:32:00.184Z,2.00
2022-08-09T05:33:01.938Z,2.20
2022-08-09T05:34:03.464Z,1.67
2022-08-09T05:35:05.778Z,2.25
2022-08-09T05:36:07.229Z,2.15
2022-08-09T05:37:11.438Z,2.08
2022-08-09T05:38:13.002Z,2.00
2022-08-09T05:39:28.999Z,1.90
2022-08-09T05:40:31.321Z,1.73
2022-08-09T05:41:32.795Z,1.90
2022-08-09T05:42:34.499Z,2.20
2022-08-09T05:43:36.335Z,2.03
2022-08-09T05:44:37.678Z,2.20
2022-08-09T05:45:43.510Z,2.53
2022-08-09T05:46:54.410Z,2.83
2022-08-09T05:48:01.329Z,2.80
2022-08-09T05:49:02.931Z,2.65
2022-08-09T05:50:25.156Z,3.67
2022-08-09T05:51:42.951Z,3.40
2022-08-09T05:52:53.429Z,3.58
2022-08-09T05:53:57.657Z,3.42
2022-08-09T05:55:06.761Z,2.70
2022-08-09T05:56:08.671Z,2.72
2022-08-09T05:57:12.704Z,2.70
2022-08-09T05:58:18.478Z,2.67
2022-08-09T05:59:21.831Z,1.92
2022-08-09T06:00:23.448Z,2.10
2022-08-09T06:01:25.249Z,1.70
2022-08-09T06:02:35.485Z,2.00
2022-08-09T06:03:44.319Z,1.83
2022-08-09T06:04:58.582Z,2.03
2022-08-09T06:06:04.569Z,1.98
2022-08-09T06:07:07.421Z,2.00
2022-08-09T06:08:11.374Z,2.20
2022-08-09T06:09:23.084Z,2.28
2022-08-09T06:10:40.242Z,2.25
2022-08-09T06:11:56.699Z,2.33
2022-08-09T06:13:03.081Z,2.10
2022-08-09T06:14:19.915Z,2.22
2022-08-09T06:15:21.278Z,2.20
2022-08-09T06:16:23.363Z,1.88
2022-08-09T06:17:24.932Z,2.30
2022-08-09T06:18:26.249Z,2.70
2022-08-09T06:19:27.847Z,1.90
2022-08-09T06:20:29.340Z,1.90
2022-08-09T06:21:31.844Z,1.95
2022-08-09T06:22:33.440Z,1.63
2022-08-09T06:23:57.433Z,1.80
2022-08-09T06:24:56.498Z,2.20
2022-08-09T06:25:57.941Z,1.75
2022-08-09T06:26:59.271Z,2.08
2022-08-09T06:28:00.602Z,2.08
2022-08-09T06:29:05.161Z,2.20
2022-08-09T06:30:09.953Z,1.90
2022-08-09T06:31:11.575Z,2.00
2022-08-09T06:32:53.274Z,2.00
2022-08-09T06:33:40.018Z,2.22
2022-08-09T06:34:43.189Z,2.00
2022-08-09T06:36:03.765Z,2.25
2022-08-09T06:37:10.192Z,1.90
2022-08-09T06:38:11.697Z,2.08
2022-08-09T06:39:17.301Z,1.83
2022-08-09T06:40:23.986Z,1.63
2022-08-09T06:41:55.874Z,1.60
2022-08-09T06:42:50.234Z,1.90
2022-08-09T06:43:53.115Z,2.03
2022-08-09T06:44:55.292Z,2.13
2022-08-09T06:46:06.283Z,1.95
2022-08-09T06:47:13.047Z,1.88
2022-08-09T06:48:16.799Z,2.00
2022-08-09T06:50:11.852Z,2.00
2022-08-09T06:50:53.421Z,1.75
2022-08-09T06:51:54.818Z,2.05
2022-08-09T06:52:57.249Z,2.28
2022-08-09T06:54:00.928Z,2.20
2022-08-09T06:55:06.655Z,1.85
2022-08-09T06:56:14.274Z,1.90
2022-08-09T06:57:16.155Z,2.40
2022-08-09T07:00:53.011Z,2.40
2022-08-09T07:00:54.832Z,1.90
2022-08-09T07:01:00.488Z,2.17
2022-08-09T07:02:04.487Z,2.20
2022-08-09T07:03:06.396Z,1.98
2022-08-09T07:04:07.845Z,2.22
2022-08-09T07:05:11.858Z,2.22
2022-08-09T07:06:13.753Z,2.70
2022-08-09T07:07:59.034Z,2.20
2022-08-09T07:08:39.514Z,2.80
2022-08-09T07:09:54.269Z,2.40
2022-08-09T07:11:03.339Z,2.05
2022-08-09T07:12:05.290Z,2.20
2022-08-09T07:13:18.808Z,2.35
2022-08-09T07:14:28.111Z,2.05
2022-08-09T07:16:35.130Z,1.90
2022-08-09T07:16:57.689Z,2.13
2022-08-09T07:18:02.267Z,1.95
2022-08-09T07:19:04.396Z,2.03
2022-08-09T07:20:06.077Z,2.15
2022-08-09T07:21:10.137Z,2.38
2022-08-09T07:22:11.792Z,1.85
2022-08-09T07:23:19.246Z,1.95
2022-08-09T07:24:21.184Z,1.90
2022-08-09T07:25:33.315Z,2.22
2022-08-09T07:26:44.187Z,2.00
2022-08-09T07:27:53.515Z,1.65
2022-08-09T07:29:08.898Z,1.70
2022-08-09T07:30:14.251Z,1.80
2022-08-09T07:31:15.570Z,2.08
2022-08-09T07:32:17.509Z,1.70
2022-08-09T07:33:18.839Z,1.73
2022-08-09T07:34:21.650Z,2.22
2022-08-09T07:35:27.082Z,2.25
2022-08-09T07:36:32.372Z,1.80
2022-08-09T07:37:43.670Z,1.85
2022-08-09T07:38:52.566Z,1.95
2022-08-09T07:39:59.687Z,1.67
2022-08-09T07:41:11.871Z,1.88
2022-08-09T07:42:14.814Z,2.15
2022-08-09T07:43:16.826Z,2.15
2022-08-09T07:44:18.451Z,2.13
2022-08-09T07:45:38.263Z,1.83
2022-08-09T07:46:41.850Z,2.33
2022-08-09T07:48:00.757Z,1.92
2022-08-09T07:49:05.819Z,1.98
2022-08-09T07:50:09.856Z,1.90
2022-08-09T07:52:05.174Z,2.30
2022-08-09T07:52:33.082Z,1.98
2022-08-09T07:54:04.356Z,1.50
2022-08-09T07:55:00.596Z,1.70
2022-08-09T07:56:06.266Z,1.70
2022-08-09T07:57:11.731Z,1.98
2022-08-09T07:58:14.125Z,1.58
2022-08-09T07:59:25.244Z,1.90
2022-08-09T08:00:36.429Z,2.00
2022-08-09T08:01:38.227Z,1.85
2022-08-09T08:02:42.285Z,2.38
2022-08-09T08:03:44.275Z,1.90
2022-08-09T08:04:48.719Z,1.70
2022-08-09T08:05:53.882Z,2.13
2022-08-09T08:07:00.023Z,1.60
2022-08-09T08:09:00.056Z,2.17
2022-08-09T08:09:41.137Z,1.83
2022-08-09T08:11:03.070Z,1.90
2022-08-09T08:12:10.048Z,1.77
2022-08-09T08:13:13.230Z,1.92
2022-08-09T08:14:15.964Z,1.90
2022-08-09T08:15:24.000Z,1.63
2022-08-09T08:16:31.494Z,1.70
2022-08-09T08:17:54.198Z,1.60
2022-08-09T08:18:55.204Z,1.80
2022-08-09T08:19:57.140Z,1.73
2022-08-09T08:20:59.403Z,2.13
2022-08-09T08:22:00.745Z,2.00
2022-08-09T08:23:16.376Z,2.33
2022-08-09T08:24:18.903Z,1.63
2022-08-09T08:25:20.815Z,1.77
2022-08-09T08:26:41.709Z,1.92
2022-08-09T08:27:43.525Z,1.67
2022-08-09T08:28:45.010Z,1.55
2022-08-09T08:29:50.410Z,1.88
2022-08-09T08:30:53.911Z,1.67
2022-08-09T08:32:03.401Z,2.05
2022-08-09T08:33:05.988Z,1.80
2022-08-09T08:34:14.067Z,1.58
2022-08-09T08:35:18.131Z,1.90
2022-08-09T08:36:22.443Z,1.73
2022-08-09T08:37:41.441Z,1.70
2022-08-09T08:38:52.020Z,1.85
2022-08-09T08:39:54.523Z,2.10
2022-08-09T08:40:57.174Z,1.80
2022-08-09T08:41:59.075Z,1.60
2022-08-09T08:43:02.012Z,1.88
2022-08-09T08:44:04.046Z,1.77
2022-08-09T08:45:11.845Z,1.58
2022-08-09T08:46:33.624Z,1.88
2022-08-09T08:47:42.795Z,1.50
2022-08-09T08:48:51.940Z,1.92
2022-08-09T08:49:56.182Z,1.42
2022-08-09T08:51:04.273Z,1.50
2022-08-09T08:52:10.347Z,1.90
2022-08-09T08:53:16.054Z,1.90
2022-08-09T08:54:29.833Z,1.50
2022-08-09T08:55:32.329Z,1.73
2022-08-09T08:56:35.448Z,1.60
2022-08-09T08:57:37.660Z,1.65
2022-08-09T08:58:46.369Z,1.88
2022-08-09T08:59:49.141Z,1.77
2022-08-09T09:00:57.211Z,1.70
2022-08-09T09:01:59.684Z,1.50
2022-08-09T09:03:11.325Z,1.60
2022-08-09T09:04:18.610Z,1.75
2022-08-09T09:05:57.534Z,1.77
2022-08-09T09:06:51.598Z,1.60
2022-08-09T09:07:53.407Z,1.80
2022-08-09T09:08:59.653Z,1.50
2022-08-09T09:10:05.053Z,1.60
2022-08-09T09:11:13.621Z,1.70
2022-08-09T09:12:20.156Z,1.50
2022-08-09T09:13:23.682Z,1.63
2022-08-09T09:14:36.014Z,2.05
2022-08-09T09:15:38.698Z,1.85
2022-08-09T09:16:41.647Z,1.73
2022-08-09T09:17:49.392Z,1.80
2022-08-09T09:19:15.695Z,1.70
2022-08-09T09:20:16.957Z,1.63
2022-08-09T09:21:25.929Z,1.70
2022-08-09T09:22:28.933Z,1.42
2022-08-09T09:23:42.160Z,1.80
2022-08-09T09:24:54.538Z,1.60
2022-08-09T09:26:12.018Z,1.70
2022-08-09T09:28:03.196Z,1.58
2022-08-09T09:29:02.275Z,1.98
2022-08-09T09:30:15.843Z,1.48
2022-08-09T09:32:05.774Z,1.60
2022-08-09T09:33:02.762Z,1.60
2022-08-09T09:34:18.509Z,1.70
2022-08-09T09:35:20.025Z,1.70
2022-08-09T09:36:22.693Z,1.55
2022-08-09T09:37:31.925Z,1.50
2022-08-09T09:38:46.291Z,1.30
2022-08-09T09:39:57.804Z,1.60
2022-08-09T09:41:02.146Z,1.38
2022-08-09T09:42:10.722Z,1.48
2022-08-09T09:43:20.388Z,1.50
2022-08-09T09:44:27.731Z,1.30
2022-08-09T09:45:30.904Z,1.58
2022-08-09T09:46:43.394Z,1.30
2022-08-09T09:47:58.547Z,1.45
2022-08-09T09:49:03.148Z,1.40
2022-08-09T09:50:14.519Z,1.40
2022-08-09T09:51:38.023Z,1.45
2022-08-09T09:52:53.474Z,1.20
2022-08-09T09:54:10.559Z,1.50
2022-08-09T09:55:32.356Z,1.40
2022-08-09T09:56:35.876Z,1.67
2022-08-09T09:58:04.373Z,1.70
2022-08-09T09:58:58.785Z,1.40
2022-08-09T10:00:02.608Z,1.58
2022-08-09T10:01:31.013Z,1.40
2022-08-09T10:02:47.224Z,1.30
2022-08-09T10:03:57.930Z,1.42
2022-08-09T10:05:06.570Z,1.00
2022-08-09T10:06:08.831Z,1.27
2022-08-09T10:07:26.749Z,1.42
2022-08-09T10:08:31.984Z,1.40
2022-08-09T10:09:48.759Z,1.40
2022-08-09T10:10:50.837Z,1.77
2022-08-09T10:12:04.405Z,1.40
2022-08-09T10:13:14.082Z,1.30
2022-08-09T10:14:35.396Z,1.20
2022-08-09T10:16:09.635Z,1.23
2022-08-09T10:17:39.004Z,1.35
2022-08-09T10:18:33.479Z,1.30
2022-08-09T10:19:36.141Z,1.30
2022-08-09T10:20:45.195Z,1.23
2022-08-09T10:21:48.690Z,1.50
2022-08-09T10:22:58.513Z,1.55
2022-08-09T10:24:04.466Z,1.35
2022-08-09T10:25:11.958Z,1.25
2022-08-09T10:26:16.265Z,1.15
2022-08-09T10:27:24.739Z,1.15
2022-08-09T10:28:30.965Z,1.42
2022-08-09T10:30:29.980Z,1.40
2022-08-09T10:34:07.802Z,1.35
2022-08-09T10:34:59.039Z,1.27
2022-08-09T10:36:01.232Z,1.17
2022-08-09T10:37:03.643Z,1.40
2022-08-09T10:38:33.731Z,1.20
2022-08-09T10:39:40.520Z,1.30
2022-08-09T10:40:44.775Z,1.45
2022-08-09T10:41:52.064Z,1.60
2022-08-09T10:42:53.593Z,1.30
2022-08-09T10:43:59.363Z,1.40
2022-08-09T10:45:04.954Z,1.27
2022-08-09T10:46:32.059Z,1.30
2022-08-09T10:48:19.221Z,1.15
2022-08-09T10:49:03.811Z,1.60
2022-08-09T10:50:17.161Z,1.17
2022-08-09T10:51:41.241Z,1.33
2022-08-09T10:52:52.358Z,1.20
2022-08-09T10:53:56.512Z,1.50
2022-08-09T10:55:02.224Z,1.30
2022-08-09T10:56:23.904Z,1.50
2022-08-09T10:57:34.357Z,1.30
2022-08-09T10:58:38.945Z,1.58
2022-08-09T10:59:58.194Z,1.50
2022-08-09T11:03:12.032Z,1.25
2022-08-09T11:03:14.819Z,1.30
2022-08-09T11:04:19.915Z,1.17
2022-08-09T11:05:31.276Z,1.40
2022-08-09T11:06:34.849Z,1.20
2022-08-09T11:07:58.469Z,1.25
2022-08-09T11:09:15.996Z,1.10
2022-08-09T11:10:37.565Z,1.30
2022-08-09T11:11:58.574Z,1.30
2022-08-09T11:13:53.950Z,1.20
2022-08-09T11:14:56.248Z,1.20
2022-08-09T11:16:34.980Z,1.50
2022-08-09T11:17:41.873Z,1.45
2022-08-09T11:18:45.045Z,1.20
2022-08-09T11:20:11.089Z,1.05
2022-08-09T11:21:37.384Z,1.63
2022-08-09T11:22:43.292Z,1.17
2022-08-09T11:23:58.858Z,1.10
2022-08-09T11:25:15.425Z,1.17
2022-08-09T11:26:35.503Z,1.23
2022-08-09T11:28:04.976Z,1.20
2022-08-09T11:29:05.639Z,1.52
2022-08-09T11:30:32.044Z,1.30
2022-08-09T11:31:38.987Z,1.30
2022-08-09T11:32:45.007Z,1.35
2022-08-09T11:33:51.194Z,1.15
2022-08-09T11:34:52.956Z,1.20
2022-08-09T11:35:57.274Z,1.00
2022-08-09T11:36:59.207Z,1.25
2022-08-09T11:38:14.293Z,1.20
2022-08-09T11:39:16.688Z,1.10
2022-08-09T11:40:24.182Z,1.20
2022-08-09T11:41:37.973Z,1.10
2022-08-09T11:42:43.463Z,1.20
2022-08-09T11:43:48.511Z,1.20
2022-08-09T11:44:50.071Z,1.40
2022-08-09T11:45:59.455Z,1.10
2022-08-09T11:47:01.228Z,1.20
2022-08-09T11:48:25.087Z,1.38
2022-08-09T11:50:52.613Z,1.25
2022-08-09T11:51:21.342Z,1.17
2022-08-09T11:53:03.028Z,1.27
2022-08-09T11:54:13.748Z,1.35
2022-08-09T11:55:52.708Z,1.20
2022-08-09T11:57:15.714Z,1.55
2022-08-09T11:58:19.948Z,1.27
2022-08-09T11:59:34.367Z,1.25
2022-08-09T12:00:47.617Z,1.50
2022-08-09T12:02:16.318Z,1.10
2022-08-09T12:03:54.731Z,1.27
2022-08-09T12:04:38.352Z,1.40
2022-08-09T12:05:42.269Z,1.20
2022-08-09T12:06:55.522Z,1.20
2022-08-09T12:07:58.307Z,1.25
2022-08-09T12:09:01.319Z,1.20
2022-08-09T12:10:03.117Z,1.13
2022-08-09T12:11:04.622Z,1.33
2022-08-09T12:12:20.219Z,1.40
2022-08-09T12:14:08.295Z,1.25
2022-08-09T12:15:07.658Z,1.35
2022-08-09T12:16:37.161Z,1.42
2022-08-09T12:17:43.007Z,1.13
2022-08-09T12:18:49.055Z,1.40
2022-08-09T12:19:59.527Z,1.30
2022-08-09T12:21:02.763Z,1.42
2022-08-09T12:22:05.036Z,1.40
2022-08-09T12:23:06.417Z,1.50
2022-08-09T12:24:10.144Z,1.25
2022-08-09T12:25:14.765Z,1.40
2022-08-09T12:26:19.734Z,1.30
2022-08-09T12:29:00.216Z,1.50
2022-08-09T12:29:14.625Z,1.30
2022-08-09T12:30:36.665Z,1.33
2022-08-09T12:32:01.667Z,1.55
2022-08-09T12:33:04.445Z,1.30
2022-08-09T12:34:05.937Z,1.60
2022-08-09T12:35:10.879Z,1.50
2022-08-09T12:36:27.353Z,1.35
2022-08-09T12:37:33.790Z,1.13
2022-08-09T12:38:53.227Z,1.63
2022-08-09T12:40:02.136Z,1.30
2022-08-09T12:41:03.688Z,1.20
2022-08-09T12:42:11.222Z,1.23
2022-08-09T12:44:04.305Z,1.63
2022-08-09T12:44:52.030Z,1.40
2022-08-09T12:45:59.615Z,1.30
2022-08-09T12:47:02.194Z,1.50
2022-08-09T12:48:10.716Z,1.10
2022-08-09T12:49:23.097Z,1.10
2022-08-09T12:50:25.147Z,1.30
2022-08-09T12:51:52.358Z,1.23
2022-08-09T12:53:08.025Z,1.27
2022-08-09T12:54:10.485Z,1.10
2022-08-09T12:56:15.778Z,1.15
2022-08-09T12:56:51.437Z,1.30
2022-08-09T12:57:55.646Z,1.20
2022-08-09T12:59:10.302Z,1.10
2022-08-09T13:00:19.126Z,1.20
2022-08-09T13:01:28.391Z,1.40
2022-08-09T13:02:31.726Z,1.30
2022-08-09T13:03:53.315Z,1.17
2022-08-09T13:05:02.452Z,1.17
2022-08-09T13:06:16.179Z,1.25
2022-08-09T13:07:28.742Z,1.25
2022-08-09T13:08:56.786Z,1.10
2022-08-09T13:10:01.931Z,1.10
2022-08-09T13:11:23.219Z,1.08
2022-08-09T13:12:25.413Z,1.40
2022-08-09T13:13:38.289Z,1.15
2022-08-09T13:15:07.214Z,1.20
2022-08-09T13:16:10.081Z,1.10
2022-08-09T13:17:43.830Z,1.10
2022-08-09T13:18:42.882Z,1.17
2022-08-09T13:20:08.802Z,1.10
2022-08-09T13:22:38.123Z,1.00
2022-08-09T13:23:01.804Z,1.20
2022-08-09T13:24:33.078Z,1.30
2022-08-09T13:25:42.088Z,1.85
2022-08-09T13:26:49.973Z,1.30
2022-08-09T13:27:55.651Z,1.30
2022-08-09T13:29:17.806Z,1.23
2022-08-09T13:30:50.225Z,1.30
2022-08-09T13:32:16.053Z,1.30
2022-08-09T13:33:23.577Z,1.27
2022-08-09T13:34:25.685Z,1.20
2022-08-09T13:35:34.850Z,1.40
2022-08-09T13:36:53.539Z,0.90
2022-08-09T13:37:55.596Z,1.13
2022-08-09T13:39:00.966Z,1.20
2022-08-09T13:41:50.897Z,1.20
2022-08-09T13:41:57.836Z,1.10
2022-08-09T13:42:49.888Z,1.17
2022-08-09T13:43:53.231Z,1.00
2022-08-09T13:44:54.615Z,1.13
2022-08-09T13:46:44.752Z,0.98
2022-08-09T13:47:33.879Z,1.48
2022-08-09T13:48:38.921Z,0.90
2022-08-09T13:49:57.360Z,1.15
2022-08-09T13:51:02.526Z,1.00
2022-08-09T13:52:04.710Z,1.27
2022-08-09T13:53:10.662Z,1.10
2022-08-09T13:54:13.433Z,1.05
2022-08-09T13:55:15.314Z,1.83
2022-08-09T13:56:19.179Z,1.10
2022-08-09T13:57:36.353Z,1.10
2022-08-09T13:58:40.547Z,1.13
2022-08-09T13:59:43.314Z,1.13
2022-08-09T14:00:49.909Z,1.17
2022-08-09T14:01:56.637Z,0.90
2022-08-09T14:04:02.546Z,1.08
2022-08-09T14:04:24.457Z,1.25
2022-08-09T14:05:56.421Z,0.90
2022-08-09T14:07:00.472Z,1.00
2022-08-09T14:08:05.645Z,1.02
2022-08-09T14:09:07.825Z,0.98
2022-08-09T14:10:17.529Z,0.90
2022-08-09T14:11:32.180Z,1.02
2022-08-09T14:12:42.762Z,1.30
2022-08-09T14:14:24.720Z,0.98
2022-08-09T14:16:06.673Z,1.27
2022-08-09T14:16:29.110Z,1.30
2022-08-09T14:17:32.588Z,1.02
2022-08-09T14:18:52.615Z,1.30
2022-08-09T14:19:55.296Z,1.17
2022-08-09T14:20:57.054Z,1.02
2022-08-09T14:21:58.566Z,1.02
2022-08-09T14:23:00.039Z,1.10
2022-08-09T14:24:10.181Z,1.10
2022-08-09T14:25:12.058Z,1.15
2022-08-09T14:26:14.288Z,1.17
2022-08-09T14:27:20.415Z,1.05
2022-08-09T14:28:22.139Z,1.10
2022-08-09T14:30:34.967Z,1.13
2022-08-09T14:30:49.847Z,1.10
2022-08-09T14:31:53.532Z,1.10
2022-08-09T14:32:55.745Z,1.25
2022-08-09T14:33:59.168Z,1.20
2022-08-09T14:35:06.405Z,1.00
2022-08-09T14:36:20.717Z,1.20
2022-08-09T14:37:28.331Z,1.10
2022-08-09T14:38:30.052Z,1.13
2022-08-09T14:39:39.901Z,1.38
2022-08-09T14:41:04.241Z,1.00
2022-08-09T14:42:09.092Z,1.15
2022-08-09T14:43:10.535Z,1.10
2022-08-09T14:44:20.069Z,1.05
2022-08-09T14:46:54.700Z,1.02
2022-08-09T14:47:29.020Z,1.10
2022-08-09T14:48:26.755Z,1.20
2022-08-09T14:49:28.888Z,1.20
2022-08-09T14:50:37.014Z,1.00
2022-08-09T14:51:42.199Z,1.20
2022-08-09T14:52:50.020Z,1.10
2022-08-09T14:53:52.676Z,1.02
2022-08-09T14:54:54.145Z,1.10
2022-08-09T14:55:55.651Z,1.30
2022-08-09T14:56:57.720Z,1.10
2022-08-09T14:58:01.098Z,1.00
2022-08-09T14:59:04.750Z,1.13
2022-08-09T15:00:10.384Z,1.13
2022-08-09T15:01:12.554Z,0.90
2022-08-09T15:02:14.206Z,1.38
2022-08-09T15:03:19.983Z,1.00
2022-08-09T15:04:23.592Z,1.30
2022-08-09T15:05:25.182Z,1.10
2022-08-09T15:06:26.540Z,1.00
2022-08-09T15:07:31.358Z,1.27
2022-08-09T15:08:36.930Z,1.10
2022-08-09T15:10:04.824Z,0.93
2022-08-09T15:11:07.319Z,1.10
2022-08-09T15:12:09.552Z,1.10
2022-08-09T15:13:15.841Z,1.38
2022-08-09T15:14:18.294Z,1.30
2022-08-09T15:15:21.276Z,1.10
2022-08-09T15:16:22.655Z,1.02
2022-08-09T15:17:24.122Z,1.10
2022-08-09T15:18:26.771Z,1.23
2022-08-09T15:19:30.424Z,1.02
2022-08-09T15:21:56.427Z,1.00
2022-08-09T15:22:02.415Z,1.10
2022-08-09T15:24:00.752Z,1.15
2022-08-09T15:24:28.340Z,1.50
2022-08-09T15:25:39.079Z,1.02
2022-08-09T15:26:45.980Z,1.10
2022-08-09T15:28:00.594Z,1.08